Camden, NJ (08101)

5:53 PM EDT on April 23, 2017 (GMT -0400)
Martin Aaron | | Change Station

Elev 16 ft 39.93 °N, 75.12 °W | Updated 3 seconds ago

Partly Cloudy
Partly Cloudy
65.5 °F
Feels Like 65.5 °F
N
1.6
Wind Variable Wind from WSW
Gusts 2.5 mph

Today
High -- | Low -- °F
--% Chance of Precip.
Yesterday
High -- | Low -- °F
Precip. -- in
Pressure 30.07 in
Visibility 10.0 miles
Clouds Few 5500 ft
Scattered Clouds 23000 ft
Mostly Cloudy 26000 ft
Dew Point 44 °F
Humidity 46%
Rainfall 0.00 in
Snow Depth Not available.
6:10 AM 7:47 PM
Waning Crescent, 9% visible
METAR KPHL 232054Z 00000KT 10SM FEW055 SCT230 BKN260 18/03 A3007 RMK AO2 SLP181 T01780033 56014 $
Pressure 30.07 in
Visibility 10.0 miles
Clouds Few 5500 ft
Scattered Clouds 23000 ft
Mostly Cloudy 26000 ft
Dew Point 44 °F
Humidity 46%
Rainfall 0.00 in
Snow Depth Not available.
6:10 AM 7:47 PM
Waning Crescent, 9% visible
METAR KPHL 232054Z 00000KT 10SM FEW055 SCT230 BKN260 18/03 A3007 RMK AO2 SLP181 T01780033 56014 $

Get Severe Weather Alerts

Thanks for signing up!

Be on the lookout for a verification email in your inbox.

You'll start receiving the daily forecast at 8 AM.

×

10-Day Weather Forecast

Almanac

Astronomy

Apr. 23, 2017 Rise Set
Actual Time
Civil Twilight
Nautical Twilight
Astronomical Twilight
Moon
Length of Visible Light
Length of Day
Tomorrow will be .
, % of the Moon is Illuminated

Today's Extremes

State Highs State Lows

Community

WunderPhotos

WunderBlog® & News

Nearby

Air Quality

  Air Quality AQ Index Pollutant
Not available.

Snow Depth

Station Depth Elevation

Earthquake Activity

City Distance Mag. Time & Date
Minimum magnitude displayed is 2.5.

Coastal Water Temperatures

Place Temperature

Stations

Nearby Weather Stations

Station Location Temp. Windchill Dew Point Humidity Wind Precip. Elev Updated Type
                   

Watches & Warnings

There are currently no watches in effect.